createdAt,value
2018-07-17T00:00:07.129Z,62.30
2018-07-17T00:02:35.676Z,62.20
2018-07-17T00:05:04.851Z,62.20
2018-07-17T00:07:33.441Z,62.30
2018-07-17T00:10:01.979Z,62.30
2018-07-17T00:12:30.526Z,62.30
2018-07-17T00:14:59.027Z,62.20
2018-07-17T00:17:27.563Z,62.30
2018-07-17T00:19:56.083Z,62.40
2018-07-17T00:22:24.631Z,62.40
2018-07-17T00:24:53.147Z,62.50
2018-07-17T00:27:21.745Z,62.50
2018-07-17T00:29:50.254Z,62.60
2018-07-17T00:32:18.885Z,62.60
2018-07-17T00:34:48.023Z,62.60
2018-07-17T00:37:16.563Z,62.70
2018-07-17T00:39:45.184Z,62.70
2018-07-17T00:42:13.742Z,63.80
2018-07-17T00:47:10.495Z,62.80
2018-07-17T00:49:39.125Z,62.60
2018-07-17T00:52:08.301Z,62.70
2018-07-17T00:54:36.833Z,62.70
2018-07-17T00:57:05.366Z,62.70
2018-07-17T00:59:33.874Z,62.60
2018-07-17T01:02:07.784Z,62.60
2018-07-17T01:04:41.607Z,62.60
2018-07-17T01:07:15.591Z,62.60
2018-07-17T01:09:49.266Z,62.50
2018-07-17T01:12:17.022Z,62.50
2018-07-17T01:19:49.931Z,62.60
2018-07-17T01:22:18.462Z,62.60
2018-07-17T01:24:46.963Z,62.60
2018-07-17T01:27:15.510Z,62.60
2018-07-17T01:29:44.019Z,62.60
2018-07-17T01:32:12.554Z,62.60
2018-07-17T01:34:41.089Z,62.60
2018-07-17T01:37:09.673Z,63.50
2018-07-17T01:39:38.187Z,62.60
2018-07-17T01:42:07.489Z,62.70
2018-07-17T01:44:36.006Z,62.60
2018-07-17T01:47:04.555Z,62.90
2018-07-17T01:49:33.079Z,62.90
2018-07-17T01:52:01.890Z,63.10
2018-07-17T01:54:30.418Z,63.20
2018-07-17T01:56:59.779Z,63.30
2018-07-17T01:59:28.307Z,63.40
2018-07-17T02:01:56.805Z,63.60
2018-07-17T02:04:25.355Z,63.70
2018-07-17T02:06:53.883Z,63.90
2018-07-17T02:09:22.462Z,63.90
2018-07-17T02:11:50.975Z,64.00
2018-07-17T02:14:19.521Z,64.10
2018-07-17T02:19:16.231Z,64.30
2018-07-17T02:21:44.818Z,64.40
2018-07-17T02:24:13.389Z,64.50
2018-07-17T02:26:42.585Z,64.50
2018-07-17T02:29:11.123Z,64.60
2018-07-17T02:31:39.637Z,64.70
2018-07-17T02:34:08.304Z,64.80
2018-07-17T02:39:06.425Z,64.90
2018-07-17T02:41:34.975Z,64.90
2018-07-17T02:44:03.530Z,65.10
2018-07-17T02:46:32.042Z,65.10
2018-07-17T02:49:00.577Z,65.10
2018-07-17T02:51:29.105Z,65.30
2018-07-17T02:53:57.970Z,65.30
2018-07-17T02:56:26.500Z,65.30
2018-07-17T02:58:55.046Z,66.20
2018-07-17T03:01:23.554Z,65.30
2018-07-17T03:03:52.283Z,65.40
2018-07-17T03:06:20.868Z,65.50
2018-07-17T03:08:49.648Z,65.50
2018-07-17T03:11:18.417Z,65.60
2018-07-17T03:13:46.950Z,65.60
2018-07-17T03:16:15.474Z,65.60
2018-07-17T03:18:44.018Z,65.70
2018-07-17T03:21:12.539Z,65.80
2018-07-17T03:23:41.096Z,65.90
2018-07-17T03:26:09.608Z,65.80
2018-07-17T03:28:38.165Z,66.40
2018-07-17T03:31:06.718Z,65.80
2018-07-17T03:33:35.250Z,65.80
2018-07-17T03:36:03.765Z,65.80
2018-07-17T03:38:32.343Z,65.80
2018-07-17T03:41:00.922Z,65.90
2018-07-17T03:43:29.460Z,65.80
2018-07-17T03:45:58.607Z,65.90
2018-07-17T03:48:27.149Z,66.80
2018-07-17T03:50:55.693Z,66.00
2018-07-17T03:53:24.254Z,66.80
2018-07-17T03:55:52.786Z,66.10
2018-07-17T03:58:21.344Z,66.00
2018-07-17T04:00:49.862Z,66.10
2018-07-17T04:03:18.405Z,66.10
2018-07-17T04:05:46.945Z,65.80
2018-07-17T04:08:15.490Z,66.30
2018-07-17T04:10:44.036Z,66.20
2018-07-17T04:13:12.568Z,66.20
2018-07-17T04:15:41.189Z,66.30
2018-07-17T04:18:09.890Z,66.30
2018-07-17T04:20:38.442Z,66.40
2018-07-17T04:23:07.259Z,66.50
2018-07-17T04:25:36.039Z,66.50
2018-07-17T04:28:04.571Z,66.60
2018-07-17T04:30:33.113Z,66.70
2018-07-17T04:33:01.626Z,66.80
2018-07-17T04:35:30.244Z,66.90
2018-07-17T04:37:58.770Z,67.10
2018-07-17T04:40:27.326Z,67.70
2018-07-17T04:42:55.931Z,67.30
2018-07-17T04:45:24.588Z,67.50
2018-07-17T04:47:53.127Z,67.60
2018-07-17T04:50:21.702Z,67.70
2018-07-17T04:52:50.238Z,71.00
2018-07-17T04:55:19.787Z,71.60
2018-07-17T04:57:48.303Z,71.20
2018-07-17T05:00:16.861Z,70.80
2018-07-17T05:02:45.379Z,70.50
2018-07-17T05:05:33.987Z,70.30
2018-07-17T05:08:02.525Z,75.40
2018-07-17T05:10:31.071Z,72.90
2018-07-17T05:13:00.383Z,71.70
2018-07-17T05:15:28.874Z,69.40
2018-07-17T05:17:57.381Z,67.90
2018-07-17T05:20:26.020Z,66.80
2018-07-17T05:22:54.563Z,66.10
2018-07-17T05:25:23.118Z,65.30
2018-07-17T05:27:51.657Z,64.80
2018-07-17T05:30:20.190Z,64.20
2018-07-17T05:32:48.905Z,63.80
2018-07-17T05:35:17.550Z,63.40
2018-07-17T05:37:46.299Z,63.30
2018-07-17T05:40:15.202Z,63.00
2018-07-17T05:42:43.878Z,62.80
2018-07-17T05:45:12.431Z,62.90
2018-07-17T05:47:41.447Z,62.60
2018-07-17T05:50:11.590Z,62.60
2018-07-17T05:52:40.354Z,62.50
2018-07-17T05:55:08.971Z,62.10
2018-07-17T05:57:37.488Z,61.90
2018-07-17T06:02:34.784Z,66.50
2018-07-17T06:05:04.122Z,64.50
2018-07-17T06:07:32.661Z,63.10
2018-07-17T06:10:01.492Z,62.50
2018-07-17T06:12:30.267Z,62.10
2018-07-17T06:14:58.809Z,62.00
2018-07-17T06:17:27.381Z,61.90
2018-07-17T06:19:56.006Z,62.00
2018-07-17T06:22:24.528Z,62.10
2018-07-17T06:24:53.077Z,62.10
2018-07-17T06:27:21.737Z,61.90
2018-07-17T06:29:50.271Z,61.90
2018-07-17T06:32:18.805Z,62.00
2018-07-17T06:34:51.319Z,61.90
2018-07-17T06:37:20.095Z,62.00
2018-07-17T06:39:48.880Z,61.90
2018-07-17T06:42:17.812Z,61.90
2018-07-17T06:44:46.465Z,61.90
2018-07-17T06:47:15.023Z,62.10
2018-07-17T06:49:43.899Z,62.30
2018-07-17T06:52:12.817Z,62.30
2018-07-17T06:54:41.825Z,62.20
2018-07-17T06:57:10.737Z,62.30
2018-07-17T06:59:39.330Z,62.40
2018-07-17T07:02:07.895Z,62.30
2018-07-17T07:04:36.412Z,62.40
2018-07-17T07:07:05.121Z,62.30
2018-07-17T07:09:33.952Z,62.30
2018-07-17T07:12:02.556Z,62.20
2018-07-17T07:14:31.082Z,62.20
2018-07-17T07:16:59.637Z,62.30
2018-07-17T07:19:28.280Z,62.40
2018-07-17T07:21:56.862Z,62.40
2018-07-17T07:24:25.410Z,62.40
2018-07-17T07:26:54.012Z,62.40
2018-07-17T07:29:22.730Z,63.30
2018-07-17T07:31:51.268Z,62.50
2018-07-17T07:36:48.035Z,63.50
2018-07-17T07:39:16.567Z,62.70
2018-07-17T07:41:45.403Z,62.70
2018-07-17T07:44:13.919Z,62.60
2018-07-17T07:46:42.490Z,62.50
2018-07-17T07:49:11.052Z,62.50
2018-07-17T07:51:39.630Z,62.60
2018-07-17T07:54:08.178Z,62.40
2018-07-17T07:56:36.763Z,62.30
2018-07-17T07:59:05.282Z,62.40
2018-07-17T08:01:33.859Z,62.40
2018-07-17T08:04:02.426Z,62.80
2018-07-17T08:06:31.066Z,62.30
2018-07-17T08:08:59.592Z,62.40
2018-07-17T08:11:29.543Z,62.40
2018-07-17T08:16:26.263Z,63.20
2018-07-17T08:18:54.818Z,62.40
2018-07-17T08:21:23.362Z,62.30
2018-07-17T08:23:51.907Z,62.30
2018-07-17T08:26:20.433Z,63.20
2018-07-17T08:28:48.980Z,62.30
2018-07-17T08:31:17.637Z,62.30
2018-07-17T08:33:46.218Z,62.20
2018-07-17T08:36:14.763Z,62.00
2018-07-17T08:38:43.303Z,61.90
2018-07-17T08:41:11.815Z,61.80
2018-07-17T08:43:40.507Z,61.90
2018-07-17T08:46:08.947Z,61.80
2018-07-17T08:48:37.593Z,61.80
2018-07-17T08:51:06.430Z,62.00
2018-07-17T08:53:34.985Z,62.00
2018-07-17T08:56:03.497Z,62.00
2018-07-17T08:58:32.173Z,61.90
2018-07-17T09:01:00.714Z,61.80
2018-07-17T09:03:29.274Z,61.70
2018-07-17T09:05:57.884Z,62.40
2018-07-17T09:08:26.405Z,61.30
2018-07-17T09:10:54.965Z,60.50
2018-07-17T09:13:23.496Z,60.40
2018-07-17T09:15:52.023Z,60.40
2018-07-17T09:18:20.599Z,60.20
2018-07-17T09:23:17.489Z,59.80
2018-07-17T09:25:46.041Z,60.00
2018-07-17T09:28:15.124Z,59.80
2018-07-17T09:33:17.680Z,59.60
2018-07-17T09:35:46.811Z,59.70
2018-07-17T09:38:15.367Z,59.60
2018-07-17T09:40:43.887Z,59.50
2018-07-17T09:43:12.440Z,59.40
2018-07-17T09:45:40.986Z,59.30
2018-07-17T09:48:09.599Z,59.30
2018-07-17T09:50:38.114Z,59.10
2018-07-17T09:53:06.694Z,58.60
2018-07-17T09:55:35.331Z,58.30
2018-07-17T09:58:03.947Z,58.60
2018-07-17T10:00:35.328Z,58.40
2018-07-17T10:03:04.119Z,58.20
2018-07-17T10:05:32.654Z,57.70
2018-07-17T10:08:01.445Z,57.30
2018-07-17T10:10:30.044Z,56.90
2018-07-17T10:12:58.692Z,56.90
2018-07-17T10:15:27.249Z,57.20
2018-07-17T10:17:55.802Z,56.60
2018-07-17T10:20:24.403Z,57.00
2018-07-17T10:22:52.994Z,56.00
2018-07-17T10:25:21.531Z,55.60
2018-07-17T10:27:50.116Z,55.50
2018-07-17T10:30:18.670Z,56.00
2018-07-17T10:32:47.190Z,56.10
2018-07-17T10:35:15.730Z,55.60
2018-07-17T10:37:44.245Z,55.30
2018-07-17T10:40:12.839Z,55.00
2018-07-17T10:42:41.408Z,54.60
2018-07-17T10:45:09.967Z,54.50
2018-07-17T10:47:38.921Z,54.20
2018-07-17T10:50:07.517Z,54.10
2018-07-17T10:52:36.069Z,51.60
2018-07-17T10:55:04.687Z,52.10
2018-07-17T10:57:33.231Z,52.20
2018-07-17T11:00:01.919Z,52.20
2018-07-17T11:02:30.430Z,52.50
2018-07-17T11:04:58.979Z,52.60
2018-07-17T11:07:27.511Z,52.50
2018-07-17T11:09:56.077Z,52.50
2018-07-17T11:12:24.621Z,52.50
2018-07-17T11:14:53.161Z,52.70
2018-07-17T11:17:21.796Z,52.10
2018-07-17T11:19:50.329Z,51.80
2018-07-17T11:22:18.908Z,51.10
2018-07-17T11:24:47.442Z,45.30
2018-07-17T11:27:16.051Z,44.40
2018-07-17T11:29:44.740Z,43.00
2018-07-17T11:32:13.312Z,42.30
2018-07-17T11:34:41.849Z,42.30
2018-07-17T11:37:10.385Z,42.10
2018-07-17T11:39:39.012Z,42.20
2018-07-17T11:44:35.786Z,43.30
2018-07-17T11:47:04.367Z,42.70
2018-07-17T11:49:32.920Z,43.00
2018-07-17T11:52:01.446Z,43.20
2018-07-17T11:54:29.994Z,43.30
2018-07-17T11:56:58.531Z,43.60
2018-07-17T11:59:27.273Z,43.80
2018-07-17T12:01:55.866Z,43.70
2018-07-17T12:04:24.424Z,43.70
2018-07-17T12:06:52.952Z,44.30
2018-07-17T12:09:22.710Z,43.80
2018-07-17T12:11:51.783Z,44.10
2018-07-17T12:14:20.345Z,44.00
2018-07-17T12:16:48.869Z,43.70
2018-07-17T12:19:17.569Z,43.60
2018-07-17T12:21:46.209Z,43.90
2018-07-17T12:24:14.796Z,43.90
2018-07-17T12:26:43.326Z,43.90
2018-07-17T12:29:11.848Z,44.10
2018-07-17T12:31:40.385Z,44.30
2018-07-17T12:34:08.906Z,44.20
2018-07-17T12:36:37.458Z,44.10
2018-07-17T12:39:08.482Z,44.00
2018-07-17T12:41:37.070Z,44.20
2018-07-17T12:44:05.737Z,44.30
2018-07-17T12:46:34.307Z,44.40
2018-07-17T12:49:02.947Z,43.80
2018-07-17T12:51:31.705Z,44.00
2018-07-17T12:54:00.367Z,43.70
2018-07-17T12:56:28.935Z,43.50
2018-07-17T13:01:25.983Z,42.90
2018-07-17T13:03:54.499Z,43.10
2018-07-17T13:06:23.183Z,43.20
2018-07-17T13:08:51.738Z,42.90
2018-07-17T13:11:20.281Z,42.70
2018-07-17T13:13:48.846Z,43.10
2018-07-17T13:16:17.414Z,42.80
2018-07-17T13:18:45.954Z,42.50
2018-07-17T13:21:14.500Z,42.30
2018-07-17T13:23:44.273Z,42.30
2018-07-17T13:26:12.894Z,42.20
2018-07-17T13:28:41.426Z,42.00
2018-07-17T13:31:10.171Z,41.70
2018-07-17T13:33:38.683Z,41.80
2018-07-17T13:36:07.251Z,41.50
2018-07-17T13:38:35.810Z,41.40
2018-07-17T13:41:04.361Z,41.40
2018-07-17T13:43:37.400Z,41.40
2018-07-17T13:48:34.757Z,41.00
2018-07-17T13:51:03.454Z,41.20
2018-07-17T13:53:31.985Z,41.50
2018-07-17T13:56:00.562Z,41.50
2018-07-17T13:58:29.149Z,41.40
2018-07-17T14:00:57.692Z,41.30
2018-07-17T14:03:26.261Z,41.30
2018-07-17T14:05:54.877Z,41.60
2018-07-17T14:08:23.451Z,42.10
2018-07-17T14:10:52.129Z,42.50
2018-07-17T14:13:20.678Z,42.80
2018-07-17T14:15:49.194Z,43.00
2018-07-17T14:18:17.737Z,43.30
2018-07-17T14:20:46.260Z,43.70
2018-07-17T14:23:14.914Z,44.00
2018-07-17T14:25:43.736Z,44.20
2018-07-17T14:28:12.271Z,44.50
2018-07-17T14:30:40.803Z,44.70
2018-07-17T14:33:09.497Z,44.90
2018-07-17T14:35:38.094Z,45.10
2018-07-17T14:38:06.676Z,45.30
2018-07-17T14:40:35.230Z,45.60
2018-07-17T14:43:03.935Z,46.20
2018-07-17T14:45:32.454Z,47.60
2018-07-17T14:48:01.013Z,48.80
2018-07-17T14:50:29.678Z,49.60
2018-07-17T14:52:58.223Z,50.50
2018-07-17T14:55:26.821Z,51.20
2018-07-17T14:57:55.361Z,51.80
2018-07-17T15:00:24.060Z,52.50
2018-07-17T15:02:52.713Z,52.90
2018-07-17T15:05:21.244Z,53.30
2018-07-17T15:07:49.825Z,53.60
2018-07-17T15:15:15.425Z,54.20
2018-07-17T15:17:43.974Z,54.30
2018-07-17T15:20:12.506Z,54.60
2018-07-17T15:22:41.282Z,54.70
2018-07-17T15:25:09.897Z,55.00
2018-07-17T15:27:38.503Z,55.10
2018-07-17T15:30:07.022Z,55.30
2018-07-17T15:32:35.737Z,55.60
2018-07-17T15:35:04.479Z,55.70
2018-07-17T15:37:33.003Z,55.90
2018-07-17T15:40:01.591Z,55.90
2018-07-17T15:42:30.142Z,55.90
2018-07-17T15:44:58.693Z,55.90
2018-07-17T15:47:27.288Z,55.90
2018-07-17T15:49:55.916Z,55.70
2018-07-17T15:52:24.693Z,55.60
2018-07-17T15:54:53.350Z,55.40
2018-07-17T15:57:21.902Z,55.20
2018-07-17T15:59:50.498Z,55.30
2018-07-17T16:02:19.157Z,55.20
2018-07-17T16:04:47.731Z,55.20
2018-07-17T16:07:16.267Z,55.20
2018-07-17T16:09:44.914Z,55.00
2018-07-17T16:12:13.458Z,55.50
2018-07-17T16:14:42.684Z,54.80
2018-07-17T16:17:11.370Z,54.60
2018-07-17T16:19:40.071Z,54.30
2018-07-17T16:22:08.626Z,54.20
2018-07-17T16:24:37.198Z,54.10
2018-07-17T16:27:06.152Z,54.00
2018-07-17T16:29:35.065Z,54.10
2018-07-17T16:32:03.696Z,54.00
2018-07-17T16:34:32.262Z,53.90
2018-07-17T16:37:00.861Z,53.80
2018-07-17T16:39:29.431Z,53.80
2018-07-17T16:41:57.978Z,53.90
2018-07-17T16:44:26.614Z,53.90
2018-07-17T16:46:55.145Z,53.90
2018-07-17T16:49:23.694Z,53.80
2018-07-17T16:51:52.326Z,53.90
2018-07-17T16:54:20.962Z,53.90
2018-07-17T16:56:49.475Z,53.90
2018-07-17T16:59:18.042Z,54.00
2018-07-17T17:01:46.569Z,53.90
2018-07-17T17:04:15.111Z,53.80
2018-07-17T17:06:43.631Z,53.70
2018-07-17T17:11:41.458Z,53.60
2018-07-17T17:14:10.252Z,53.80
2018-07-17T17:16:39.024Z,53.40
2018-07-17T17:19:07.586Z,53.40
2018-07-17T17:21:36.296Z,52.60
2018-07-17T17:24:05.572Z,55.50
2018-07-17T17:26:34.991Z,56.10
2018-07-17T17:29:03.647Z,56.40
2018-07-17T17:31:32.202Z,56.70
2018-07-17T17:34:00.758Z,57.20
2018-07-17T17:36:29.364Z,59.70
2018-07-17T17:38:57.954Z,70.20
2018-07-17T17:41:26.501Z,78.40
2018-07-17T17:43:55.035Z,80.90
2018-07-17T17:46:23.671Z,82.00
2018-07-17T17:48:52.266Z,83.40
2018-07-17T17:51:21.059Z,83.40
2018-07-17T17:53:49.617Z,83.70
2018-07-17T17:56:18.164Z,85.10
2018-07-17T17:58:46.687Z,84.50
2018-07-17T18:01:15.249Z,84.20
2018-07-17T18:03:43.782Z,84.30
2018-07-17T18:06:12.885Z,85.20
2018-07-17T18:08:41.430Z,85.40
2018-07-17T18:11:09.979Z,84.90
2018-07-17T18:13:38.522Z,85.20
2018-07-17T18:16:07.074Z,85.00
2018-07-17T18:18:35.642Z,84.60
2018-07-17T18:21:04.246Z,84.70
2018-07-17T18:23:32.797Z,84.40
2018-07-17T18:26:01.357Z,84.40
2018-07-17T18:28:29.861Z,84.10
2018-07-17T18:30:58.426Z,84.10
2018-07-17T18:33:26.970Z,83.50
2018-07-17T18:35:55.543Z,83.40
2018-07-17T18:38:24.067Z,83.40
2018-07-17T18:40:52.626Z,82.30
2018-07-17T18:43:21.169Z,81.70
2018-07-17T18:45:49.733Z,81.40
2018-07-17T18:48:18.322Z,81.10
2018-07-17T18:50:46.846Z,80.90
2018-07-17T18:53:15.384Z,80.50
2018-07-17T18:55:44.025Z,80.60
2018-07-17T18:58:12.543Z,79.90
2018-07-17T19:00:41.136Z,80.00
2018-07-17T19:03:09.694Z,79.30
2018-07-17T19:05:38.259Z,79.10
2018-07-17T19:08:07.042Z,78.90
2018-07-17T19:10:35.583Z,78.80
2018-07-17T19:13:04.338Z,78.90
2018-07-17T19:15:32.878Z,78.30
2018-07-17T19:18:01.507Z,77.80
2018-07-17T19:20:30.197Z,78.00
2018-07-17T19:22:58.726Z,77.70
2018-07-17T19:25:27.364Z,77.50
2018-07-17T19:27:55.889Z,77.70
2018-07-17T19:30:24.437Z,77.30
2018-07-17T19:32:53.054Z,77.30
2018-07-17T19:35:23.587Z,77.10
2018-07-17T19:37:52.183Z,76.80
2018-07-17T19:42:48.915Z,76.70
2018-07-17T19:45:18.977Z,76.60
2018-07-17T19:47:47.535Z,76.20
2018-07-17T19:50:16.068Z,76.10
2018-07-17T19:52:44.696Z,75.90
2018-07-17T19:55:13.187Z,75.40
2018-07-17T19:57:41.939Z,75.30
2018-07-17T20:00:10.510Z,75.30
2018-07-17T20:02:39.079Z,75.00
2018-07-17T20:05:07.642Z,74.80
2018-07-17T20:10:05.037Z,74.90
2018-07-17T20:12:33.574Z,75.10
2018-07-17T20:15:02.159Z,74.40
2018-07-17T20:17:30.708Z,74.30
2018-07-17T20:19:59.318Z,74.20
2018-07-17T20:22:27.895Z,73.90
2018-07-17T20:24:56.439Z,73.90
2018-07-17T20:27:24.985Z,73.80
2018-07-17T20:29:53.524Z,73.60
2018-07-17T20:32:22.062Z,73.70
2018-07-17T20:34:50.606Z,73.70
2018-07-17T20:37:19.213Z,74.40
2018-07-17T20:39:47.753Z,73.50
2018-07-17T20:42:16.374Z,73.40
2018-07-17T20:44:44.889Z,73.20
2018-07-17T20:47:13.438Z,73.20
2018-07-17T20:49:41.953Z,73.30
2018-07-17T20:52:10.562Z,73.20
2018-07-17T20:54:39.094Z,73.00
2018-07-17T20:57:07.703Z,73.10
2018-07-17T20:59:36.251Z,72.90
2018-07-17T21:02:04.916Z,73.20
2018-07-17T21:04:33.434Z,72.30
2018-07-17T21:07:02.041Z,72.40
2018-07-17T21:09:30.669Z,72.30
2018-07-17T21:11:59.226Z,72.20
2018-07-17T21:14:27.743Z,72.20
2018-07-17T21:16:56.311Z,72.30
2018-07-17T21:19:25.031Z,72.30
2018-07-17T21:21:53.822Z,72.10
2018-07-17T21:24:22.389Z,72.00
2018-07-17T21:26:50.950Z,72.10
2018-07-17T21:29:19.476Z,72.10
2018-07-17T21:31:48.014Z,71.90
2018-07-17T21:34:16.542Z,71.90
2018-07-17T21:36:45.174Z,71.90
2018-07-17T21:39:14.145Z,71.80
2018-07-17T21:41:42.738Z,71.90
2018-07-17T21:44:11.265Z,71.80
2018-07-17T21:46:40.237Z,71.60
2018-07-17T21:49:09.350Z,71.40
2018-07-17T21:51:38.489Z,71.50
2018-07-17T21:54:07.987Z,71.20
2018-07-17T21:56:37.174Z,71.00
2018-07-17T21:59:06.131Z,70.90
2018-07-17T22:01:35.897Z,70.90
2018-07-17T22:04:05.497Z,71.00
2018-07-17T22:06:34.465Z,70.90
2018-07-17T22:09:03.209Z,70.80
2018-07-17T22:11:31.742Z,70.70
2018-07-17T22:14:00.626Z,70.70
2018-07-17T22:16:30.022Z,70.70
2018-07-17T22:18:59.430Z,70.60
2018-07-17T22:21:27.975Z,70.50
2018-07-17T22:23:56.533Z,70.40
2018-07-17T22:26:25.824Z,70.40
2018-07-17T22:28:55.089Z,70.40
2018-07-17T22:31:24.370Z,70.40
2018-07-17T22:33:52.934Z,70.30
2018-07-17T22:36:21.441Z,70.10
2018-07-17T22:38:49.976Z,70.20
2018-07-17T22:41:18.512Z,70.30
2018-07-17T22:43:47.041Z,70.10
2018-07-17T22:46:15.558Z,70.10
2018-07-17T22:51:12.320Z,70.10
2018-07-17T22:53:40.893Z,70.20
2018-07-17T22:56:09.418Z,70.30
2018-07-17T22:58:37.957Z,70.30
2018-07-17T23:01:07.114Z,70.00
2018-07-17T23:03:35.645Z,70.90
2018-07-17T23:06:04.355Z,70.20
2018-07-17T23:08:32.926Z,70.60
2018-07-17T23:11:01.436Z,69.90
2018-07-17T23:13:29.989Z,69.80
2018-07-17T23:15:58.494Z,69.90
2018-07-17T23:18:27.022Z,69.70
2018-07-17T23:20:55.570Z,69.80
2018-07-17T23:23:24.130Z,69.80
2018-07-17T23:25:52.650Z,70.00
2018-07-17T23:28:21.184Z,69.70
2018-07-17T23:30:49.718Z,69.80
2018-07-17T23:33:18.356Z,69.80
2018-07-17T23:35:46.877Z,69.90
2018-07-17T23:38:15.417Z,70.00
2018-07-17T23:40:43.958Z,69.90
2018-07-17T23:43:12.480Z,69.80
2018-07-17T23:45:41.017Z,69.90
2018-07-17T23:48:09.547Z,70.00
2018-07-17T23:50:38.097Z,69.90
2018-07-17T23:53:06.621Z,70.20
2018-07-17T23:55:35.157Z,70.20
2018-07-17T23:58:03.707Z,70.00
